Time;durP1;ratioP1;P1;durP2;ratioP2;P2;SDS_P1;SDS_P2;PMS_P1;PMS_P2;Temp;Humidity;BMP_temperature;BMP_pressure;BME280_temperature;BME280_humidity;BME280_pressure;Samples;Min_cycle;Max_cycle;Signal;HPM_P1;HPM_P2
2022/01/20 00:01:35;;;;;;;8.85;3.22;;;;;;;21.95;34.29;102064.66;5030984;28;20531;-68
2022/01/20 00:04:01;;;;;;;8.82;3.28;;;;;;;21.96;34.25;102068.97;5039062;28;20132;-69
2022/01/20 00:09:29;;;;;;;7.80;3.25;;;;;;;21.88;34.22;102063.63;5038734;28;20060;-69
2022/01/20 00:28:19;;;;;;;8.95;3.03;;;;;;;21.72;34.58;102061.75;5032153;28;20470;-68
2022/01/20 00:38:29;;;;;;;5.57;2.55;;;;;;;21.61;35.04;102054.97;5015834;28;20044;-69
2022/01/20 00:40:55;;;;;;;5.10;2.35;;;;;;;21.62;34.97;102056.63;5032532;28;20052;-68
2022/01/20 00:43:21;;;;;;;7.75;3.00;;;;;;;21.48;34.64;102029.91;5043941;28;20051;-68
2022/01/20 00:45:47;;;;;;;5.97;2.45;;;;;;;21.62;34.72;102056.63;5037176;28;20033;-69
2022/01/20 00:48:13;;;;;;;8.55;2.92;;;;;;;21.54;34.87;102056.59;5035981;28;20047;-68
2022/01/20 00:50:38;;;;;;;5.90;2.60;;;;;;;21.57;34.63;102066.88;5039548;28;20447;-68
2022/01/20 00:53:04;;;;;;;5.28;2.55;;;;;;;21.57;34.64;102060.75;5026529;28;20024;-68
2022/01/20 00:55:31;;;;;;;6.05;2.38;;;;;;;21.58;34.77;102065.91;5035514;28;20491;-68
2022/01/20 00:57:57;;;;;;;5.25;2.42;;;;;;;21.51;34.83;102069.34;5028467;28;20175;-68
2022/01/20 01:00:23;;;;;;;4.43;2.22;;;;;;;21.42;35.02;102069.31;5037995;28;20048;-69
2022/01/20 01:02:49;;;;;;;5.20;2.55;;;;;;;21.41;35.07;102070.31;5031565;28;20041;-68
2022/01/20 01:05:15;;;;;;;6.00;3.10;;;;;;;21.39;35.02;102068.81;5031940;28;20064;-68
2022/01/20 01:07:48;;;;;;;6.03;2.90;;;;;;;21.22;35.30;102065.25;5034410;28;20071;-69
2022/01/20 01:10:18;;;;;;;5.93;2.40;;;;;;;21.20;35.15;102061.09;5035762;28;20057;-69
2022/01/20 01:12:55;;;;;;;4.35;2.42;;;;;;;21.19;35.37;102067.38;5030692;28;20144;-68
2022/01/20 01:15:27;;;;;;;5.75;2.15;;;;;;;21.17;35.45;102066.69;5041928;28;20163;-68
2022/01/20 01:23:28;;;;;;;5.60;2.25;;;;;;;20.98;35.65;102115.41;5007221;28;20041;-69
2022/01/20 01:25:56;;;;;;;3.40;1.65;;;;;;;20.93;35.67;102118.53;5032288;28;20056;-69
2022/01/20 01:28:25;;;;;;;3.30;1.67;;;;;;;20.87;35.89;102116.53;5032364;28;20048;-68
2022/01/20 01:33:38;;;;;;;3.75;1.90;;;;;;;20.78;35.79;102096.25;5031442;28;20044;-68
2022/01/20 01:36:06;;;;;;;6.68;2.38;;;;;;;20.76;35.98;102117.59;5033988;28;20073;-68
2022/01/20 01:38:35;;;;;;;5.45;2.17;;;;;;;20.72;36.00;102100.38;5027677;28;20029;-68
2022/01/20 01:41:15;;;;;;;3.88;2.13;;;;;;;20.74;36.02;102094.91;5036920;28;20051;-68
2022/01/20 01:43:44;;;;;;;2.75;1.70;;;;;;;20.68;36.00;102095.53;5037911;28;20029;-68
2022/01/20 01:46:12;;;;;;;4.93;2.03;;;;;;;20.67;35.95;102096.53;5032265;28;20868;-68
2022/01/20 01:48:41;;;;;;;4.53;1.90;;;;;;;20.55;36.13;102090.66;5034548;28;20033;-68
2022/01/20 01:51:07;;;;;;;7.15;2.08;;;;;;;20.59;36.06;102102.56;5018601;28;20041;-68
2022/01/20 01:53:33;;;;;;;6.13;2.17;;;;;;;20.59;36.07;102105.22;5035868;28;20040;-68
2022/01/20 01:55:59;;;;;;;6.50;2.35;;;;;;;20.56;35.94;102100.25;5035222;28;20501;-68
2022/01/20 01:58:25;;;;;;;4.90;1.75;;;;;;;20.54;36.02;102101.38;5036815;28;20079;-68
2022/01/20 02:01:09;;;;;;;5.75;1.90;;;;;;;20.55;36.29;102100.41;5028504;28;20072;-67
2022/01/20 02:03:44;;;;;;;4.55;2.03;;;;;;;20.52;36.02;102110.31;5033987;28;20044;-67
2022/01/20 02:08:56;;;;;;;4.10;1.75;;;;;;;20.47;36.12;102120.53;5043597;28;20052;-67
2022/01/20 02:19:57;;;;;;;4.22;1.83;;;;;;;20.32;36.28;102137.06;4994359;28;20049;-67
2022/01/20 02:22:34;;;;;;;5.35;2.10;;;;;;;20.35;36.20;102137.56;5042477;28;20041;-67
2022/01/20 02:25:36;;;;;;;4.60;1.85;;;;;;;20.31;36.26;102152.09;5026247;28;20049;-67
2022/01/20 02:28:08;;;;;;;6.18;2.08;;;;;;;20.30;36.21;102158.38;5040719;28;20064;-67
2022/01/20 02:30:35;;;;;;;4.57;1.65;;;;;;;20.25;36.33;102160.63;5028423;28;20581;-67
2022/01/20 02:33:07;;;;;;;3.80;1.70;;;;;;;20.25;36.39;102188.88;5033508;28;20033;-67
2022/01/20 02:35:37;;;;;;;2.90;1.48;;;;;;;20.24;36.28;102185.41;5030787;28;20798;-67
2022/01/20 02:38:16;;;;;;;3.05;1.55;;;;;;;20.20;36.19;102186.69;5034725;28;22157;-67
2022/01/20 02:45:54;;;;;;;5.40;1.90;;;;;;;20.17;36.32;102169.31;5030921;28;20040;-67
2022/01/20 02:48:20;;;;;;;3.22;1.38;;;;;;;20.17;36.18;102166.66;5032503;28;20071;-67
2022/01/20 02:50:45;;;;;;;2.65;1.48;;;;;;;20.13;36.27;102164.47;5032922;28;20054;-67
2022/01/20 02:53:11;;;;;;;2.50;1.40;;;;;;;20.11;36.22;102172.56;5044532;28;20545;-68
2022/01/20 02:55:37;;;;;;;5.43;2.00;;;;;;;20.12;36.29;102154.88;5027931;28;20048;-67
2022/01/20 02:58:03;;;;;;;3.05;1.60;;;;;;;20.11;36.25;102166.44;5046763;28;20454;-67
2022/01/20 03:00:31;;;;;;;3.90;1.80;;;;;;;20.09;36.19;102163.91;5028818;28;20037;-67
2022/01/20 03:02:57;;;;;;;4.50;1.55;;;;;;;20.01;36.27;102145.34;5034882;28;20319;-67
2022/01/20 03:05:23;;;;;;;4.78;1.85;;;;;;;20.07;36.17;102154.47;5027078;28;20057;-67
2022/01/20 03:07:57;;;;;;;3.83;1.55;;;;;;;20.06;36.16;102180.09;5036253;28;20045;-67
2022/01/20 03:10:22;;;;;;;2.78;1.50;;;;;;;19.93;35.89;102169.06;5038503;28;20034;-67
2022/01/20 03:12:49;;;;;;;3.83;1.60;;;;;;;20.02;36.08;102196.41;5040576;28;20041;-67
2022/01/20 03:15:14;;;;;;;7.05;1.98;;;;;;;20.01;36.20;102206.16;5034802;28;20048;-67
2022/01/20 03:17:40;;;;;;;3.08;1.73;;;;;;;20.01;36.17;102194.75;5034269;28;22028;-67
2022/01/20 03:20:08;;;;;;;3.33;1.48;;;;;;;19.99;36.21;102188.78;5037474;28;20118;-67
2022/01/20 03:22:33;;;;;;;2.40;1.40;;;;;;;19.98;36.13;102205.63;5036134;28;20041;-67
2022/01/20 03:24:59;;;;;;;3.58;1.63;;;;;;;19.97;36.16;102201.31;5039957;28;20517;-67
2022/01/20 03:27:25;;;;;;;3.53;1.40;;;;;;;19.96;36.08;102195.19;5038341;28;20033;-67
2022/01/20 03:29:51;;;;;;;5.63;1.58;;;;;;;19.92;36.17;102197.28;5035931;28;20544;-67
2022/01/20 03:32:16;;;;;;;6.13;2.08;;;;;;;19.92;36.49;102218.41;5034685;28;20025;-68
2022/01/20 03:34:43;;;;;;;3.25;1.70;;;;;;;19.91;36.19;102242.38;5032150;28;20499;-67
2022/01/20 03:37:12;;;;;;;6.85;1.80;;;;;;;19.86;36.11;102223.47;5035632;28;20071;-67
2022/01/20 03:39:51;;;;;;;4.63;1.80;;;;;;;19.88;36.14;102226.81;5029966;28;20449;-67
2022/01/20 03:42:16;;;;;;;3.83;1.92;;;;;;;19.88;36.14;102232.91;5037580;28;20033;-67
2022/01/20 03:44:42;;;;;;;7.03;1.85;;;;;;;19.84;36.23;102236.84;5036091;28;20041;-67
2022/01/20 03:47:09;;;;;;;2.33;1.48;;;;;;;19.83;36.20;102234.34;5033366;28;20059;-67
2022/01/20 03:49:50;;;;;;;3.45;1.75;;;;;;;19.81;36.26;102242.44;5046909;28;20044;-67
2022/01/20 03:52:16;;;;;;;2.65;1.38;;;;;;;19.77;36.06;102224.38;5047245;28;20062;-67
2022/01/20 03:54:42;;;;;;;4.35;1.60;;;;;;;19.60;36.14;102212.75;5037544;28;20034;-67
2022/01/20 03:57:16;;;;;;;5.55;1.58;;;;;;;19.80;36.08;102235.47;5031697;28;20053;-67
2022/01/20 04:00:00;;;;;;;5.57;2.08;;;;;;;19.80;36.17;102245.22;5036007;28;20159;-67
2022/01/20 04:02:42;;;;;;;4.15;1.90;;;;;;;19.79;36.02;102254.13;5029014;28;20053;-67
2022/01/20 04:05:27;;;;;;;2.85;1.75;;;;;;;19.77;35.94;102233.13;5035459;28;20641;-67
2022/01/20 04:08:11;;;;;;;5.22;1.35;;;;;;;19.75;35.98;102237.72;5030827;28;20044;-69
2022/01/20 04:10:36;;;;;;;6.18;2.13;;;;;;;19.73;36.01;102255.50;5033224;28;20407;-67
2022/01/20 04:13:02;;;;;;;6.22;1.80;;;;;;;19.72;35.93;102242.44;5032355;28;20041;-67
2022/01/20 04:15:36;;;;;;;6.38;1.98;;;;;;;19.72;36.00;102248.56;5032094;28;20052;-67
2022/01/20 04:18:04;;;;;;;4.00;1.88;;;;;;;19.68;36.08;102238.44;5046129;28;20037;-67
2022/01/20 04:20:29;;;;;;;5.47;2.08;;;;;;;19.66;36.25;102254.44;5044465;28;20380;-67
2022/01/20 04:22:55;;;;;;;3.80;1.20;;;;;;;19.70;36.05;102249.69;5038189;28;20052;-67
2022/01/20 04:25:21;;;;;;;2.90;1.52;;;;;;;19.71;36.04;102251.34;5033376;28;20195;-67
2022/01/20 04:27:47;;;;;;;4.07;1.45;;;;;;;19.80;36.07;102255.78;5034208;28;20392;-67
2022/01/20 04:30:12;;;;;;;6.93;2.30;;;;;;;19.92;35.82;102247.50;5037535;28;20067;-67
2022/01/20 04:32:39;;;;;;;3.63;1.58;;;;;;;20.16;35.45;102254.09;5029808;28;20076;-68
2022/01/20 04:35:04;;;;;;;5.60;1.35;;;;;;;20.43;34.95;102251.44;5032707;28;20041;-67
2022/01/20 04:37:30;;;;;;;5.80;1.98;;;;;;;20.76;34.63;102244.66;5034382;28;20041;-67
2022/01/20 04:39:56;;;;;;;5.55;1.60;;;;;;;21.04;34.45;102252.53;5035855;28;20298;-67
2022/01/20 04:42:25;;;;;;;3.67;1.30;;;;;;;21.37;33.85;102246.50;5050577;28;20636;-68
2022/01/20 04:45:02;;;;;;;5.30;1.70;;;;;;;21.74;33.62;102252.53;5033721;28;20033;-68
2022/01/20 04:58:09;;;;;;;4.10;1.80;;;;;;;22.21;32.77;102272.31;5047353;28;20411;-67
2022/01/20 05:00:35;;;;;;;3.97;1.40;;;;;;;22.19;32.66;102279.59;5027973;28;20578;-67
2022/01/20 05:03:19;;;;;;;5.75;1.95;;;;;;;22.23;32.77;102282.75;5034827;28;20075;-67
2022/01/20 05:05:46;;;;;;;3.97;1.45;;;;;;;22.22;32.42;102276.63;5028025;28;20057;-67
2022/01/20 05:08:22;;;;;;;3.95;1.70;;;;;;;22.21;32.45;102288.22;5036905;28;20098;-68
2022/01/20 05:10:50;;;;;;;4.78;1.58;;;;;;;22.03;32.93;102277.66;5034853;28;20061;-68
2022/01/20 05:13:40;;;;;;;6.65;1.58;;;;;;;22.05;33.00;102293.47;5033486;28;20035;-68
2022/01/20 05:16:03;;;;;;;3.13;1.20;;;;;;;21.98;33.12;102308.31;5030663;28;20455;-67
2022/01/20 05:18:30;;;;;;;5.03;1.83;;;;;;;21.92;33.27;102298.38;5033727;28;20037;-68
2022/01/20 05:20:56;;;;;;;3.88;1.58;;;;;;;21.86;33.39;102299.81;5031919;28;20033;-68
2022/01/20 05:23:22;;;;;;;3.40;1.20;;;;;;;21.79;33.29;102300.59;5036028;28;20147;-69
2022/01/20 05:25:47;;;;;;;2.63;1.20;;;;;;;21.71;33.49;102306.66;5033303;28;20182;-67
2022/01/20 05:28:15;;;;;;;3.67;1.40;;;;;;;21.68;33.62;102304.34;5032732;28;20037;-67
2022/01/20 05:30:41;;;;;;;4.10;1.45;;;;;;;21.63;33.50;102304.81;5030036;28;20044;-68
2022/01/20 05:33:19;;;;;;;5.20;1.55;;;;;;;21.54;33.69;102312.84;5032745;28;20049;-68
2022/01/20 05:35:44;;;;;;;2.80;1.50;;;;;;;21.41;33.72;102316.75;5034066;28;20525;-68
2022/01/20 05:38:12;;;;;;;5.32;1.45;;;;;;;21.48;34.15;102332.88;5035921;28;20145;-67
2022/01/20 05:40:39;;;;;;;6.30;1.80;;;;;;;21.48;33.81;102332.03;5034388;28;20509;-67
2022/01/20 05:43:04;;;;;;;5.25;1.55;;;;;;;21.55;33.65;102333.09;5035337;28;20223;-68
2022/01/20 05:45:31;;;;;;;4.55;1.55;;;;;;;21.57;33.71;102326.66;5037163;28;20049;-68
2022/01/20 05:48:17;;;;;;;4.85;1.80;;;;;;;21.60;33.59;102336.09;5044508;28;20090;-68
2022/01/20 05:50:45;;;;;;;4.63;1.23;;;;;;;21.66;33.43;102328.34;5032102;28;20049;-67
2022/01/20 05:53:11;;;;;;;4.22;1.60;;;;;;;21.78;33.24;102333.41;5028324;28;20457;-67
2022/01/20 05:55:38;;;;;;;5.10;1.52;;;;;;;21.84;33.35;102338.06;5034507;28;20041;-68
2022/01/20 05:58:05;;;;;;;3.92;1.38;;;;;;;21.91;33.33;102341.78;5043339;28;20044;-68
2022/01/20 06:00:33;;;;;;;3.95;1.55;;;;;;;22.00;33.18;102341.66;5035466;28;20176;-68
2022/01/20 06:05:45;;;;;;;4.28;1.50;;;;;;;22.27;32.56;102335.38;5048688;28;20517;-68
2022/01/20 06:08:13;;;;;;;2.45;1.20;;;;;;;22.35;32.82;102333.72;5040386;28;20047;-67
2022/01/20 06:10:39;;;;;;;3.92;1.63;;;;;;;22.36;32.30;102328.25;5036750;28;20784;-68
2022/01/20 06:13:12;;;;;;;4.43;1.50;;;;;;;22.12;32.54;102296.31;5040661;28;20032;-68
2022/01/20 06:15:38;;;;;;;4.10;1.65;;;;;;;22.22;32.70;102331.50;5035552;28;20044;-68
2022/01/20 06:18:04;;;;;;;4.93;1.60;;;;;;;22.18;33.00;102344.28;5035216;28;20029;-68
2022/01/20 06:20:31;;;;;;;4.70;1.50;;;;;;;22.00;33.18;102335.53;5038468;28;20037;-68
2022/01/20 06:22:57;;;;;;;3.55;1.50;;;;;;;22.02;33.28;102347.63;5046238;28;20057;-68
2022/01/20 06:25:23;;;;;;;3.28;1.58;;;;;;;21.93;33.15;102361.03;5030011;28;20056;-68
2022/01/20 06:27:49;;;;;;;3.15;1.80;;;;;;;21.82;33.49;102361.28;5034464;28;20036;-69
2022/01/20 06:30:16;;;;;;;5.93;2.00;;;;;;;21.68;33.57;102357.34;5051805;28;20044;-68
2022/01/20 06:32:42;;;;;;;5.25;1.70;;;;;;;21.68;33.79;102373.28;5030490;28;20499;-68
2022/01/20 06:35:15;;;;;;;3.50;1.67;;;;;;;21.56;33.81;102375.34;5055213;28;20044;-67
2022/01/20 06:37:41;;;;;;;4.97;1.77;;;;;;;21.49;33.76;102386.69;5040054;28;20446;-67
2022/01/20 06:40:07;;;;;;;4.10;1.63;;;;;;;21.51;33.78;102398.81;5034925;28;20510;-67
2022/01/20 06:42:36;;;;;;;3.28;1.42;;;;;;;21.48;34.00;102419.50;5042106;28;20788;-67
2022/01/20 06:45:05;;;;;;;6.05;2.03;;;;;;;21.51;34.07;102441.22;5036300;28;20341;-68
2022/01/20 06:47:30;;;;;;;4.35;1.40;;;;;;;21.55;33.64;102421.41;5036613;28;20029;-68
2022/01/20 06:49:56;;;;;;;3.70;1.80;;;;;;;21.60;33.77;102416.47;5042640;28;20826;-68
2022/01/20 06:52:22;;;;;;;4.72;1.73;;;;;;;21.78;33.59;102402.34;5036371;28;20044;-67
2022/01/20 06:54:48;;;;;;;4.85;1.80;;;;;;;21.90;32.95;102417.88;5044765;28;20034;-67
2022/01/20 06:57:14;;;;;;;3.30;1.63;;;;;;;22.07;32.98;102423.28;5032606;28;20040;-67
2022/01/20 06:59:40;;;;;;;3.72;1.65;;;;;;;22.18;32.74;102428.34;5035937;28;20037;-68
2022/01/20 07:02:06;;;;;;;4.63;1.58;;;;;;;22.28;32.61;102429.91;5032012;28;20037;-67
2022/01/20 07:04:36;;;;;;;3.80;1.63;;;;;;;22.33;32.58;102423.28;5052541;28;20025;-68
2022/01/20 07:07:02;;;;;;;4.45;1.70;;;;;;;22.37;32.22;102414.84;5040830;28;20468;-68
2022/01/20 07:09:57;;;;;;;3.85;1.75;;;;;;;22.39;32.45;102417.34;5038493;28;20124;-67
2022/01/20 07:12:33;;;;;;;3.13;1.95;;;;;;;22.37;32.33;102424.63;5038884;28;20040;-68
2022/01/20 07:14:58;;;;;;;4.43;2.00;;;;;;;22.32;32.60;102427.78;5035862;28;20098;-68
2022/01/20 07:17:26;;;;;;;5.97;2.20;;;;;;;22.30;32.70;102437.72;5046965;28;20123;-67
2022/01/20 07:19:51;;;;;;;5.05;2.35;;;;;;;22.24;32.44;102448.94;5033959;28;20128;-67
2022/01/20 07:22:18;;;;;;;6.30;2.10;;;;;;;22.17;32.50;102451.38;5037280;28;20037;-68
2022/01/20 07:24:44;;;;;;;5.75;2.25;;;;;;;22.08;33.03;102456.78;5034462;28;20048;-68
2022/01/20 07:27:20;;;;;;;4.28;2.10;;;;;;;22.01;32.74;102473.28;5054006;28;20044;-68
2022/01/20 07:29:46;;;;;;;3.95;2.05;;;;;;;21.98;32.97;102483.38;5037301;28;20036;-68
2022/01/20 07:32:11;;;;;;;4.88;2.15;;;;;;;21.95;32.96;102471.28;5047183;28;20021;-67
2022/01/20 07:34:37;;;;;;;6.35;2.38;;;;;;;21.88;33.27;102472.84;5040214;28;20045;-68
2022/01/20 07:37:04;;;;;;;4.90;2.25;;;;;;;21.75;33.17;102450.41;5032546;28;20045;-68
2022/01/20 07:39:29;;;;;;;5.45;1.95;;;;;;;21.73;33.52;102466.47;5034341;28;20102;-67
2022/01/20 07:41:55;;;;;;;6.10;2.33;;;;;;;21.68;33.56;102472.19;5025841;28;20490;-67
2022/01/20 07:44:39;;;;;;;4.68;2.17;;;;;;;21.62;33.68;102478.13;5045788;28;20521;-68
2022/01/20 07:47:20;;;;;;;5.80;2.10;;;;;;;21.49;33.51;102463.56;5032367;28;20037;-67
2022/01/20 07:49:45;;;;;;;3.70;2.00;;;;;;;21.62;33.65;102490.53;5036964;28;20532;-68
2022/01/20 07:52:12;;;;;;;6.47;2.63;;;;;;;21.64;33.28;102493.88;5043924;28;20036;-68
2022/01/20 07:54:38;;;;;;;7.13;2.50;;;;;;;21.73;33.01;102500.09;5036745;28;20128;-68
2022/01/20 07:57:04;;;;;;;5.05;2.42;;;;;;;21.83;32.91;102519.41;5053508;28;20039;-67
2022/01/20 07:59:30;;;;;;;6.28;2.65;;;;;;;21.88;32.76;102515.28;5030146;28;20071;-68
2022/01/20 08:01:55;;;;;;;4.28;2.10;;;;;;;22.06;32.36;102510.00;5037518;28;20064;-68
2022/01/20 08:04:21;;;;;;;4.75;2.15;;;;;;;22.09;32.73;102506.22;5055387;28;20101;-68
2022/01/20 08:06:47;;;;;;;4.30;1.90;;;;;;;22.01;32.49;102507.78;5036015;28;20057;-68
2022/01/20 08:09:17;;;;;;;5.03;2.25;;;;;;;21.87;33.04;102496.88;5041638;28;20198;-68
2022/01/20 08:11:48;;;;;;;5.68;1.90;;;;;;;21.83;33.20;102498.19;5036228;28;20498;-68
2022/01/20 08:14:34;;;;;;;5.18;1.92;;;;;;;21.55;32.97;102466.47;5030781;28;20467;-68
2022/01/20 08:17:00;;;;;;;3.45;1.90;;;;;;;21.68;33.17;102487.28;5032449;28;20044;-68
2022/01/20 08:19:27;;;;;;;2.97;1.90;;;;;;;21.61;33.42;102476.44;5040111;28;20381;-68
2022/01/20 08:21:53;;;;;;;5.55;2.15;;;;;;;21.61;33.37;102481.75;5035467;28;20032;-67
2022/01/20 08:24:18;;;;;;;6.60;2.20;;;;;;;21.59;33.53;102493.50;5033762;28;20319;-67
2022/01/20 08:26:44;;;;;;;5.35;2.45;;;;;;;21.51;33.51;102482.81;5035830;28;20068;-68
2022/01/20 08:29:10;;;;;;;5.78;1.90;;;;;;;21.27;33.30;102447.13;5034742;28;20045;-68
2022/01/20 08:31:39;;;;;;;5.10;2.00;;;;;;;21.44;33.59;102482.59;5032416;28;20136;-69
2022/01/20 08:34:24;;;;;;;5.50;2.20;;;;;;;21.22;33.61;102452.03;5037654;28;20401;-67
2022/01/20 08:37:12;;;;;;;6.43;2.17;;;;;;;21.45;33.63;102494.00;5028702;28;20041;-68
2022/01/20 08:39:42;;;;;;;4.00;1.90;;;;;;;21.46;33.47;102508.94;5032124;28;20114;-67
2022/01/20 08:42:08;;;;;;;5.93;2.13;;;;;;;21.43;33.55;102499.47;5048548;28;20037;-67
2022/01/20 08:44:34;;;;;;;5.28;2.10;;;;;;;21.44;32.80;102482.59;5031222;28;20098;-67
2022/01/20 08:47:02;;;;;;;4.78;2.05;;;;;;;21.37;33.19;102469.09;5035585;28;20123;-67
2022/01/20 08:49:29;;;;;;;3.58;2.00;;;;;;;21.54;32.89;102491.28;5035592;28;20441;-67
2022/01/20 08:51:56;;;;;;;5.35;1.73;;;;;;;21.75;32.95;102498.13;5037468;28;20109;-67
2022/01/20 08:54:27;;;;;;;5.32;2.22;;;;;;;21.73;32.30;102473.59;5035678;28;20345;-67
2022/01/20 08:57:03;;;;;;;3.55;1.67;;;;;;;22.33;31.73;102510.88;5030414;28;20045;-67
2022/01/20 08:59:29;;;;;;;4.07;2.30;;;;;;;22.68;31.55;102526.69;5035638;28;20112;-66
2022/01/20 09:01:55;;;;;;;4.10;1.73;;;;;;;22.92;30.84;102564.03;5038004;28;20024;-67
2022/01/20 09:04:21;;;;;;;3.83;1.88;;;;;;;23.09;30.68;102553.47;5039232;28;20043;-67
2022/01/20 09:07:15;;;;;;;4.55;2.47;;;;;;;23.12;30.61;102526.56;5035577;28;20045;-67
2022/01/20 09:09:45;;;;;;;5.97;2.10;;;;;;;23.02;30.56;102542.66;5056216;28;20042;-67
2022/01/20 09:17:26;;;;;;;5.65;1.92;;;;;;;22.55;31.32;102537.72;5044870;28;20513;-67
2022/01/20 09:19:52;;;;;;;5.55;1.70;;;;;;;22.44;31.44;102535.34;5033345;28;20077;-67
2022/01/20 09:22:19;;;;;;;4.68;1.95;;;;;;;22.34;32.01;102542.56;5043537;28;20106;-67
2022/01/20 09:24:45;;;;;;;6.70;2.00;;;;;;;22.24;32.21;102547.13;5035152;28;20077;-67
2022/01/20 09:27:13;;;;;;;3.53;1.35;;;;;;;22.15;32.22;102566.63;5024963;28;20154;-67
2022/01/20 09:29:41;;;;;;;3.55;1.73;;;;;;;22.06;32.16;102571.00;5037567;28;20028;-67
2022/01/20 09:32:10;;;;;;;4.82;2.10;;;;;;;21.99;32.58;102576.06;5042229;28;20064;-67
2022/01/20 09:34:36;;;;;;;3.50;1.70;;;;;;;21.90;32.77;102569.03;5050488;28;20120;-68
2022/01/20 09:37:02;;;;;;;8.20;2.20;;;;;;;21.83;32.62;102569.78;5034089;28;20488;-67
2022/01/20 09:39:34;;;;;;;5.97;2.17;;;;;;;21.76;32.85;102571.38;5034899;28;20087;-67
2022/01/20 09:42:06;;;;;;;3.35;1.70;;;;;;;21.64;32.77;102558.31;5048814;28;20041;-67
2022/01/20 09:44:33;;;;;;;3.67;1.85;;;;;;;21.67;32.87;102573.94;5035955;28;20041;-67
2022/01/20 09:46:59;;;;;;;5.32;1.92;;;;;;;21.62;32.86;102584.16;5038602;28;20600;-68
2022/01/20 09:49:47;;;;;;;5.43;2.10;;;;;;;21.59;33.04;102571.22;5029009;28;20143;-67
2022/01/20 09:52:33;;;;;;;3.65;1.60;;;;;;;21.56;32.83;102573.31;5044349;28;20479;-68
2022/01/20 09:55:19;;;;;;;4.30;1.70;;;;;;;21.54;32.97;102575.25;5038429;28;20176;-68
2022/01/20 09:57:45;;;;;;;4.72;1.65;;;;;;;21.59;32.65;102573.84;5041600;28;20049;-68
2022/01/20 10:00:13;;;;;;;4.45;1.50;;;;;;;21.62;32.64;102581.50;5037204;28;20041;-68
2022/01/20 10:03:10;;;;;;;3.95;1.83;;;;;;;21.79;32.57;102598.44;5037815;28;20497;-67
2022/01/20 10:05:40;;;;;;;3.17;1.52;;;;;;;21.90;32.30;102598.22;5017097;28;20541;-67
2022/01/20 10:08:14;;;;;;;4.28;1.70;;;;;;;21.99;31.99;102599.13;5028596;28;20503;-67
2022/01/20 10:10:55;;;;;;;5.13;1.67;;;;;;;22.40;31.03;102597.66;5004706;28;20684;-69
2022/01/20 10:13:29;;;;;;;4.97;1.73;;;;;;;22.80;30.41;102598.94;5029722;28;20037;-70
2022/01/20 10:16:08;;;;;;;4.20;1.85;;;;;;;23.03;30.47;102607.25;5050556;28;20112;-71
2022/01/20 10:18:53;;;;;;;4.35;1.67;;;;;;;23.27;30.20;102607.38;5032347;28;20049;-71
2022/01/20 10:21:52;;;;;;;4.10;1.67;;;;;;;23.33;30.05;102606.72;5036834;28;20040;-72
2022/01/20 10:24:26;;;;;;;5.95;2.05;;;;;;;23.27;30.11;102607.38;5022444;28;20546;-72
2022/01/20 10:27:11;;;;;;;8.13;2.33;;;;;;;23.21;29.85;102608.00;4997870;28;21914;-72
2022/01/20 10:29:39;;;;;;;4.28;2.28;;;;;;;23.21;30.00;102614.16;5033445;28;20718;-70
2022/01/20 10:32:06;;;;;;;7.15;2.10;;;;;;;22.88;30.38;102621.13;5029722;28;20108;-72
2022/01/20 10:34:35;;;;;;;5.85;1.95;;;;;;;22.62;30.95;102628.19;5007532;28;20095;-72
2022/01/20 10:37:18;;;;;;;6.07;2.38;;;;;;;22.66;31.87;102626.91;5041037;28;20063;-71
2022/01/20 10:40:07;;;;;;;5.97;2.13;;;;;;;22.84;31.69;102626.91;5009847;28;20028;-72
2022/01/20 10:42:42;;;;;;;6.30;1.80;;;;;;;22.83;31.55;102630.56;5045855;28;20068;-72
2022/01/20 10:45:19;;;;;;;7.25;1.95;;;;;;;22.82;31.58;102640.34;5020235;28;20032;-69
2022/01/20 10:47:51;;;;;;;6.00;2.15;;;;;;;22.51;30.60;102639.09;5031885;28;20110;-71
2022/01/20 10:50:26;;;;;;;4.35;1.60;;;;;;;22.62;31.11;102638.81;5005323;28;20041;-69
2022/01/20 10:52:57;;;;;;;5.80;1.98;;;;;;;22.66;31.50;102642.03;5045362;28;20037;-69
2022/01/20 10:55:33;;;;;;;5.13;1.83;;;;;;;22.66;31.45;102637.53;5007684;28;20132;-69
2022/01/20 10:58:22;;;;;;;6.93;2.00;;;;;;;22.66;31.59;102629.56;5049634;28;20479;-68
2022/01/20 11:00:55;;;;;;;3.92;1.65;;;;;;;22.65;31.59;102622.59;4994442;28;20048;-68
2022/01/20 11:03:27;;;;;;;5.70;2.08;;;;;;;22.67;32.07;102625.94;5040990;28;20450;-69
2022/01/20 11:05:56;;;;;;;6.28;2.00;;;;;;;22.69;31.79;102626.59;5017444;28;20053;-68
2022/01/20 11:08:30;;;;;;;3.70;1.90;;;;;;;22.47;31.52;102622.63;5039334;28;20043;-72
2022/01/20 11:10:58;;;;;;;3.85;1.60;;;;;;;22.41;32.02;102631.19;5008842;28;20441;-73
2022/01/20 11:13:50;;;;;;;5.57;1.98;;;;;;;22.41;31.88;102631.19;5026703;28;20049;-73
2022/01/20 11:16:17;;;;;;;4.70;1.80;;;;;;;22.45;31.66;102629.91;5013122;28;20164;-72
2022/01/20 11:18:43;;;;;;;4.35;1.88;;;;;;;22.50;31.91;102635.59;5024293;28;20067;-73
2022/01/20 11:21:08;;;;;;;4.03;2.03;;;;;;;22.53;31.68;102631.78;5038863;28;20033;-72
2022/01/20 11:23:41;;;;;;;5.63;1.95;;;;;;;22.54;31.29;102625.50;5018037;28;20037;-73
2022/01/20 11:26:57;;;;;;;7.43;2.15;;;;;;;22.46;31.44;102628.09;4973023;28;20049;-71
2022/01/20 11:29:51;;;;;;;5.95;1.88;;;;;;;22.35;31.66;102615.06;4977720;28;20034;-73
2022/01/20 11:32:36;;;;;;;3.10;1.38;;;;;;;22.18;31.70;102600.81;4997271;28;20060;-71
2022/01/20 11:35:10;;;;;;;5.55;1.58;;;;;;;22.29;31.38;102616.50;5021064;28;20037;-72
2022/01/20 11:37:55;;;;;;;5.53;1.67;;;;;;;22.27;31.22;102603.41;5037504;28;20043;-72
2022/01/20 11:40:23;;;;;;;5.80;1.85;;;;;;;22.30;31.44;102608.41;5030529;28;20048;-71
2022/01/20 11:43:03;;;;;;;4.45;1.90;;;;;;;22.33;31.37;102593.16;5017858;28;20296;-71
2022/01/20 11:45:29;;;;;;;6.10;2.25;;;;;;;22.31;31.42;102591.47;5031215;28;20037;-70
2022/01/20 11:47:55;;;;;;;4.55;1.55;;;;;;;22.26;31.40;102603.53;5011048;28;20035;-71
2022/01/20 11:50:21;;;;;;;7.45;2.15;;;;;;;22.25;31.37;102615.97;5018902;28;20171;-70
2022/01/20 11:52:47;;;;;;;6.25;1.92;;;;;;;22.22;31.33;102616.28;5034809;28;20036;-72
2022/01/20 11:55:17;;;;;;;3.67;1.55;;;;;;;22.21;31.22;102603.16;5011120;28;20242;-70
2022/01/20 11:57:43;;;;;;;6.00;1.80;;;;;;;22.16;31.45;102605.44;5036328;28;20037;-70
2022/01/20 12:00:22;;;;;;;4.90;1.90;;;;;;;22.09;31.15;102607.06;5007118;28;23929;-69
2022/01/20 12:02:49;;;;;;;4.43;1.85;;;;;;;22.06;31.51;102599.38;5032223;28;20037;-69
2022/01/20 12:05:29;;;;;;;4.32;1.85;;;;;;;22.04;31.42;102604.78;5026649;28;20045;-69
2022/01/20 12:08:17;;;;;;;5.22;1.60;;;;;;;22.05;31.40;102610.97;5026729;28;20048;-69
2022/01/20 12:10:57;;;;;;;4.00;1.77;;;;;;;22.05;31.19;102613.63;5035740;28;20051;-70
2022/01/20 12:13:23;;;;;;;8.50;2.42;;;;;;;21.97;31.50;102609.03;5014163;28;20028;-70
2022/01/20 12:15:56;;;;;;;6.53;1.60;;;;;;;21.93;31.47;102605.03;5037661;28;20044;-70
2022/01/20 12:18:21;;;;;;;4.50;2.03;;;;;;;21.90;31.10;102614.13;5008465;28;20033;-70
2022/01/20 12:20:47;;;;;;;5.53;1.77;;;;;;;21.85;31.27;102612.91;5037036;28;20071;-70
2022/01/20 12:23:13;;;;;;;6.57;2.15;;;;;;;21.83;31.35;102606.91;4998066;28;20410;-69
2022/01/20 12:25:38;;;;;;;5.50;1.77;;;;;;;21.86;31.35;102612.75;5030344;28;20033;-71
2022/01/20 12:28:09;;;;;;;4.28;1.70;;;;;;;21.93;31.38;102613.81;5002691;28;24019;-70
2022/01/20 12:30:39;;;;;;;7.68;1.90;;;;;;;22.00;31.01;102614.03;5030319;28;20158;-72
2022/01/20 12:33:14;;;;;;;;;;;;;;;22.12;31.08;102612.88;5006836;28;20036;-71
2022/01/20 12:35:41;;;;;;;3.22;1.50;;;;;;;22.13;30.77;102603.94;5035630;28;19920;-69
2022/01/20 12:38:28;;;;;;;4.43;1.73;;;;;;;22.14;30.96;102602.94;5007727;28;25563;-69
2022/01/20 12:41:02;;;;;;;4.15;1.52;;;;;;;22.18;30.78;102606.13;5021951;28;21197;-70
2022/01/20 12:43:35;;;;;;;6.25;1.70;;;;;;;22.39;30.60;102614.59;5028486;28;20041;-67
2022/01/20 12:46:01;;;;;;;5.55;1.70;;;;;;;22.27;30.41;102606.06;5003044;28;20044;-73
2022/01/20 12:48:26;;;;;;;3.97;1.48;;;;;;;22.12;31.01;102620.00;5036891;28;20041;-76
2022/01/20 12:51:04;;;;;;;6.38;1.88;;;;;;;22.04;30.53;102626.00;5005866;28;20065;-76